createdAt,value
2018-12-27T00:00:35.419Z,17.82
2018-12-27T00:01:14.168Z,27.15
2018-12-27T00:01:53.455Z,17.82
2018-12-27T00:02:32.181Z,14.83
2018-12-27T00:03:10.894Z,17.42
2018-12-27T00:03:50.085Z,17.35
2018-12-27T00:04:29.431Z,12.90
2018-12-27T00:05:08.631Z,15.53
2018-12-27T00:05:47.370Z,14.75
2018-12-27T00:06:26.723Z,15.25
2018-12-27T00:07:06.033Z,15.63
2018-12-27T00:07:44.721Z,17.30
2018-12-27T00:08:24.226Z,16.23
2018-12-27T00:09:02.964Z,16.87
2018-12-27T00:09:41.669Z,14.75
2018-12-27T00:10:20.497Z,16.07
2018-12-27T00:10:59.854Z,13.88
2018-12-27T00:11:39.201Z,14.13
2018-12-27T00:12:18.709Z,15.65
2018-12-27T00:12:57.783Z,14.85
2018-12-27T00:13:37.199Z,13.75
2018-12-27T00:14:15.869Z,14.93
2018-12-27T00:14:54.693Z,15.15
2018-12-27T00:15:33.884Z,14.45
2018-12-27T00:16:12.691Z,18.15
2018-12-27T00:16:51.691Z,14.93
2018-12-27T00:17:30.674Z,18.32
2018-12-27T00:18:09.534Z,13.78
2018-12-27T00:18:48.293Z,54.48
2018-12-27T00:19:27.660Z,25.92
2018-12-27T00:20:06.780Z,39.95
2018-12-27T00:20:46.277Z,46.30
2018-12-27T00:21:25.278Z,26.02
2018-12-27T00:22:04.047Z,20.80
2018-12-27T00:22:42.744Z,44.53
2018-12-27T00:23:21.658Z,27.85
2018-12-27T00:24:00.583Z,28.62
2018-12-27T00:24:40.748Z,59.87
2018-12-27T00:25:20.548Z,45.67
2018-12-27T00:26:02.159Z,36.98
2018-12-27T00:26:41.354Z,27.30
2018-12-27T00:27:20.901Z,36.28
2018-12-27T00:27:59.980Z,34.18
2018-12-27T00:28:38.801Z,29.10
2018-12-27T00:29:18.252Z,18.25
2018-12-27T00:29:56.995Z,20.10
2018-12-27T00:30:36.054Z,27.00
2018-12-27T00:31:15.657Z,25.15
2018-12-27T00:31:54.809Z,50.40
2018-12-27T00:32:33.971Z,45.00
2018-12-27T00:33:13.172Z,42.85
2018-12-27T00:33:52.816Z,24.85
2018-12-27T00:34:32.316Z,24.52
2018-12-27T00:35:11.957Z,59.98
2018-12-27T00:35:51.775Z,37.55
2018-12-27T00:36:31.030Z,38.53
2018-12-27T00:37:10.859Z,24.23
2018-12-27T00:37:50.218Z,35.98
2018-12-27T00:38:29.808Z,25.82
2018-12-27T00:39:09.635Z,31.75
2018-12-27T00:39:49.398Z,28.92
2018-12-27T00:40:29.105Z,24.40
2018-12-27T00:41:09.416Z,25.95
2018-12-27T00:41:49.095Z,18.80
2018-12-27T00:42:28.194Z,25.65
2018-12-27T00:43:07.837Z,26.62
2018-12-27T00:43:46.994Z,24.82
2018-12-27T00:44:26.072Z,18.52
2018-12-27T00:45:05.777Z,25.97
2018-12-27T00:45:45.414Z,26.33
2018-12-27T00:46:24.485Z,21.30
2018-12-27T00:47:04.105Z,26.73
2018-12-27T00:47:43.501Z,18.23
2018-12-27T00:48:22.872Z,21.97
2018-12-27T00:49:02.577Z,20.02
2018-12-27T00:49:41.799Z,15.10
2018-12-27T00:50:21.452Z,25.12
2018-12-27T00:51:01.139Z,18.65
2018-12-27T00:51:42.252Z,15.53
2018-12-27T00:52:21.974Z,20.88
2018-12-27T00:53:01.143Z,18.80
2018-12-27T00:53:40.941Z,13.68
2018-12-27T00:54:20.689Z,14.20
2018-12-27T00:55:00.332Z,18.57
2018-12-27T00:55:39.520Z,19.65
2018-12-27T00:56:19.217Z,14.47
2018-12-27T00:56:58.561Z,13.45
2018-12-27T00:57:37.741Z,13.60
2018-12-27T00:58:17.547Z,13.95
2018-12-27T00:58:56.767Z,16.65
2018-12-27T00:59:35.814Z,15.45
2018-12-27T01:00:15.045Z,20.20
2018-12-27T01:00:54.724Z,14.43
2018-12-27T01:01:33.753Z,15.32
2018-12-27T01:02:13.176Z,19.17
2018-12-27T01:02:52.298Z,18.70
2018-12-27T01:03:33.717Z,16.23
2018-12-27T01:04:13.373Z,13.15
2018-12-27T01:04:53.124Z,14.18
2018-12-27T01:05:32.837Z,13.95
2018-12-27T01:06:13.239Z,13.80
2018-12-27T01:06:56.058Z,13.72
2018-12-27T01:07:36.081Z,18.62
2018-12-27T01:08:15.127Z,14.20
2018-12-27T01:08:54.200Z,16.17
2018-12-27T01:09:33.621Z,13.62
2018-12-27T01:10:13.088Z,13.53
2018-12-27T01:10:55.513Z,13.18
2018-12-27T01:11:35.143Z,13.65
2018-12-27T01:12:15.212Z,13.90
2018-12-27T01:12:54.838Z,17.75
2018-12-27T01:13:34.219Z,19.07
2018-12-27T01:14:13.655Z,20.10
2018-12-27T01:14:53.368Z,21.35
2018-12-27T01:15:32.856Z,18.07
2018-12-27T01:16:12.399Z,27.62
2018-12-27T01:16:52.049Z,20.08
2018-12-27T01:17:31.521Z,15.40
2018-12-27T01:18:11.201Z,16.02
2018-12-27T01:18:50.384Z,15.68
2018-12-27T01:19:30.038Z,14.28
2018-12-27T01:20:09.115Z,13.80
2018-12-27T01:20:48.353Z,16.12
2018-12-27T01:21:27.398Z,18.23
2018-12-27T01:22:06.364Z,14.63
2018-12-27T01:22:45.457Z,19.00
2018-12-27T01:23:25.141Z,14.30
2018-12-27T01:24:04.203Z,15.95
2018-12-27T01:24:43.887Z,18.90
2018-12-27T01:25:23.525Z,21.07
2018-12-27T01:26:02.856Z,14.13
2018-12-27T01:26:42.559Z,19.17
2018-12-27T01:27:22.241Z,16.75
2018-12-27T01:28:01.374Z,17.25
2018-12-27T01:28:40.448Z,16.23
2018-12-27T01:29:19.785Z,19.30
2018-12-27T01:29:58.911Z,17.60
2018-12-27T01:30:38.408Z,16.70
2018-12-27T01:31:17.369Z,17.85
2018-12-27T01:31:57.085Z,18.90
2018-12-27T01:32:37.808Z,17.73
2018-12-27T01:33:18.895Z,17.65
2018-12-27T01:34:00.393Z,16.67
2018-12-27T01:34:39.831Z,15.50
2018-12-27T01:35:19.095Z,14.70
2018-12-27T01:35:58.880Z,16.32
2018-12-27T01:36:38.500Z,20.83
2018-12-27T01:37:18.001Z,16.30
2018-12-27T01:37:57.247Z,16.30
2018-12-27T01:38:36.628Z,16.73
2018-12-27T01:39:16.452Z,15.75
2018-12-27T01:39:56.250Z,16.65
2018-12-27T01:40:35.403Z,17.80
2018-12-27T01:41:14.699Z,17.10
2018-12-27T01:41:54.439Z,17.70
2018-12-27T01:42:33.789Z,16.62
2018-12-27T01:43:13.938Z,16.20
2018-12-27T01:43:54.669Z,17.32
2018-12-27T01:44:34.559Z,18.67
2018-12-27T01:45:15.416Z,18.50
2018-12-27T01:45:54.718Z,17.23
2018-12-27T01:46:34.374Z,17.82
2018-12-27T01:47:13.365Z,18.40
2018-12-27T01:47:52.495Z,17.02
2018-12-27T01:48:31.451Z,19.87
2018-12-27T01:49:10.665Z,17.05
2018-12-27T01:49:49.970Z,22.37
2018-12-27T01:50:29.371Z,17.02
2018-12-27T01:51:08.462Z,18.60
2018-12-27T01:51:48.096Z,19.05
2018-12-27T01:52:27.702Z,19.87
2018-12-27T01:53:07.116Z,25.27
2018-12-27T01:53:46.713Z,23.52
2018-12-27T01:54:26.337Z,21.20
2018-12-27T01:55:08.127Z,18.70
2018-12-27T01:56:32.149Z,23.98
2018-12-27T01:57:11.177Z,21.60
2018-12-27T01:57:50.224Z,23.18
2018-12-27T01:58:29.607Z,35.95
2018-12-27T01:59:08.911Z,25.85
2018-12-27T01:59:48.019Z,25.75
2018-12-27T02:00:27.786Z,27.75
2018-12-27T02:01:07.310Z,25.90
2018-12-27T02:01:46.842Z,25.77
2018-12-27T02:02:25.961Z,24.32
2018-12-27T02:03:05.530Z,22.58
2018-12-27T02:03:45.831Z,24.05
2018-12-27T02:04:25.346Z,26.45
2018-12-27T02:05:04.314Z,22.20
2018-12-27T02:05:43.339Z,24.25
2018-12-27T02:06:22.469Z,23.60
2018-12-27T02:07:01.599Z,26.12
2018-12-27T02:07:41.021Z,24.18
2018-12-27T02:08:20.382Z,24.20
2018-12-27T02:08:59.947Z,25.00
2018-12-27T02:09:39.446Z,27.15
2018-12-27T02:10:19.157Z,28.73
2018-12-27T02:10:58.606Z,24.63
2018-12-27T02:11:38.260Z,26.97
2018-12-27T02:12:17.671Z,24.47
2018-12-27T02:12:57.258Z,24.82
2018-12-27T02:13:36.978Z,26.75
2018-12-27T02:14:17.137Z,24.10
2018-12-27T02:14:56.343Z,26.60
2018-12-27T02:15:36.031Z,25.20
2018-12-27T02:16:15.323Z,26.45
2018-12-27T02:16:55.049Z,27.48
2018-12-27T02:17:34.166Z,25.55
2018-12-27T02:18:13.252Z,23.00
2018-12-27T02:18:52.480Z,24.55
2018-12-27T02:19:31.751Z,23.05
2018-12-27T02:20:10.879Z,24.67
2018-12-27T02:20:50.619Z,26.27
2018-12-27T02:21:30.559Z,23.15
2018-12-27T02:22:10.030Z,23.95
2018-12-27T02:22:49.849Z,24.10
2018-12-27T02:23:31.264Z,24.45
2018-12-27T02:24:10.920Z,23.20
2018-12-27T02:24:50.439Z,24.57
2018-12-27T02:25:33.462Z,26.65
2018-12-27T02:26:12.598Z,24.35
2018-12-27T02:26:51.858Z,26.62
2018-12-27T02:27:31.174Z,25.62
2018-12-27T02:28:10.518Z,24.82
2018-12-27T02:28:50.635Z,25.97
2018-12-27T02:29:30.698Z,32.80
2018-12-27T02:30:10.404Z,26.37
2018-12-27T02:30:51.171Z,30.55
2018-12-27T02:31:31.034Z,33.63
2018-12-27T02:32:10.837Z,32.28
2018-12-27T02:32:51.062Z,28.47
2018-12-27T02:33:35.239Z,29.90
2018-12-27T02:34:11.482Z,26.93
2018-12-27T02:34:50.844Z,26.82
2018-12-27T02:35:30.437Z,39.85
2018-12-27T02:36:09.938Z,31.90
2018-12-27T02:36:50.449Z,36.17
2018-12-27T02:37:30.349Z,27.70
2018-12-27T02:38:10.086Z,28.12
2018-12-27T02:38:49.495Z,29.87
2018-12-27T02:39:28.968Z,27.07
2018-12-27T02:40:08.521Z,30.65
2018-12-27T02:40:48.314Z,28.90
2018-12-27T02:41:27.554Z,31.62
2018-12-27T02:42:06.653Z,34.50
2018-12-27T02:42:45.793Z,28.73
2018-12-27T02:43:24.853Z,31.73
2018-12-27T02:44:04.049Z,30.45
2018-12-27T02:44:43.274Z,30.70
2018-12-27T02:45:22.565Z,32.45
2018-12-27T02:46:02.252Z,30.65
2018-12-27T02:46:41.692Z,31.90
2018-12-27T02:47:21.389Z,37.15
2018-12-27T02:48:04.127Z,33.33
2018-12-27T02:48:43.421Z,35.80
2018-12-27T02:49:22.806Z,34.92
2018-12-27T02:50:02.266Z,31.93
2018-12-27T02:50:41.617Z,34.50
2018-12-27T02:51:23.846Z,31.35
2018-12-27T02:52:06.304Z,32.80
2018-12-27T02:52:45.897Z,34.70
2018-12-27T02:53:27.200Z,38.65
2018-12-27T02:54:06.857Z,38.20
2018-12-27T02:54:46.542Z,34.63
2018-12-27T02:55:26.547Z,35.43
2018-12-27T02:56:06.847Z,35.68
2018-12-27T02:56:46.429Z,34.78
2018-12-27T02:57:26.129Z,32.93
2018-12-27T02:58:06.061Z,30.95
2018-12-27T02:58:45.394Z,32.00
2018-12-27T02:59:25.427Z,35.65
2018-12-27T03:00:07.502Z,36.70
2018-12-27T03:00:47.060Z,37.30
2018-12-27T03:01:26.317Z,34.80
2018-12-27T03:02:05.746Z,35.40
2018-12-27T03:02:45.337Z,35.70
2018-12-27T03:03:25.149Z,35.17
2018-12-27T03:04:04.770Z,35.00
2018-12-27T03:04:44.243Z,33.87
2018-12-27T03:05:24.438Z,36.25
2018-12-27T03:06:03.537Z,36.05
2018-12-27T03:06:42.659Z,37.30
2018-12-27T03:07:22.264Z,36.93
2018-12-27T03:08:01.804Z,37.80
2018-12-27T03:08:40.953Z,40.33
2018-12-27T03:09:20.174Z,38.67
2018-12-27T03:10:00.557Z,40.65
2018-12-27T03:10:40.154Z,38.30
2018-12-27T03:11:19.263Z,39.90
2018-12-27T03:11:59.078Z,39.75
2018-12-27T03:12:38.207Z,39.70
2018-12-27T03:13:17.376Z,38.48
2018-12-27T03:13:56.483Z,38.58
2018-12-27T03:14:35.800Z,37.83
2018-12-27T03:15:14.912Z,40.40
2018-12-27T03:15:56.652Z,37.78
2018-12-27T03:16:35.958Z,38.53
2018-12-27T03:17:15.336Z,39.33
2018-12-27T03:17:55.018Z,42.85
2018-12-27T03:18:34.684Z,41.00
2018-12-27T03:19:14.222Z,39.67
2018-12-27T03:19:53.673Z,40.38
2018-12-27T03:20:33.304Z,36.42
2018-12-27T03:21:12.978Z,39.15
2018-12-27T03:21:52.208Z,39.83
2018-12-27T03:22:32.125Z,39.65
2018-12-27T03:23:11.924Z,39.00
2018-12-27T03:23:50.917Z,43.33
2018-12-27T03:24:30.136Z,39.92
2018-12-27T03:25:13.419Z,39.25
2018-12-27T03:25:53.011Z,39.63
2018-12-27T03:26:32.463Z,39.63
2018-12-27T03:27:14.610Z,39.58
2018-12-27T03:27:53.724Z,36.95
2018-12-27T03:28:33.625Z,42.78
2018-12-27T03:29:13.467Z,39.05
2018-12-27T03:29:52.938Z,43.70
2018-12-27T03:30:32.810Z,39.15
2018-12-27T03:31:12.315Z,39.63
2018-12-27T03:31:52.145Z,39.98
2018-12-27T03:32:31.938Z,37.20
2018-12-27T03:33:13.518Z,38.28
2018-12-27T03:33:54.042Z,37.45
2018-12-27T03:34:33.673Z,37.48
2018-12-27T03:35:13.294Z,38.90
2018-12-27T03:35:53.046Z,39.40
2018-12-27T03:36:32.158Z,36.30
2018-12-27T03:37:11.918Z,38.45
2018-12-27T03:37:51.134Z,34.58
2018-12-27T03:38:30.217Z,36.38
2018-12-27T03:39:10.178Z,35.35
2018-12-27T03:39:49.891Z,35.25
2018-12-27T03:40:29.666Z,38.75
2018-12-27T03:41:08.807Z,32.45
2018-12-27T03:41:47.926Z,34.75
2018-12-27T03:42:27.011Z,35.58
2018-12-27T03:43:06.632Z,35.43
2018-12-27T03:43:46.488Z,32.30
2018-12-27T03:44:27.088Z,32.70
2018-12-27T03:45:06.326Z,33.02
2018-12-27T03:45:46.150Z,35.38
2018-12-27T03:46:25.848Z,33.38
2018-12-27T03:47:05.192Z,33.78
2018-12-27T03:47:44.923Z,33.38
2018-12-27T03:48:24.548Z,32.93
2018-12-27T03:49:04.408Z,32.60
2018-12-27T03:49:44.079Z,33.70
2018-12-27T03:50:23.761Z,31.25
2018-12-27T03:51:02.882Z,32.20
2018-12-27T03:51:42.215Z,30.55
2018-12-27T03:52:21.738Z,28.87
2018-12-27T03:53:00.838Z,34.98
2018-12-27T03:53:39.920Z,29.85
2018-12-27T03:54:19.004Z,30.82
2018-12-27T03:54:58.061Z,28.90
2018-12-27T03:55:37.801Z,29.07
2018-12-27T03:56:17.050Z,32.40
2018-12-27T03:56:56.441Z,27.55
2018-12-27T03:57:36.406Z,28.70
2018-12-27T03:58:16.110Z,27.85
2018-12-27T03:58:55.760Z,30.80
2018-12-27T03:59:38.098Z,28.23
2018-12-27T04:00:17.104Z,27.32
2018-12-27T04:01:15.591Z,26.70
2018-12-27T04:01:55.146Z,26.37
2018-12-27T04:02:34.913Z,25.65
2018-12-27T04:03:14.082Z,25.90
2018-12-27T04:04:01.070Z,25.50
2018-12-27T04:04:34.845Z,24.95
2018-12-27T04:05:14.553Z,26.33
2018-12-27T04:05:53.859Z,25.25
2018-12-27T04:06:33.567Z,24.43
2018-12-27T04:07:13.224Z,24.47
2018-12-27T04:07:52.299Z,24.35
2018-12-27T04:08:31.451Z,24.77
2018-12-27T04:09:11.796Z,22.35
2018-12-27T04:09:50.915Z,25.72
2018-12-27T04:10:30.268Z,26.12
2018-12-27T04:11:09.739Z,23.45
2018-12-27T04:11:49.247Z,22.37
2018-12-27T04:12:28.683Z,25.30
2018-12-27T04:13:08.344Z,24.90
2018-12-27T04:13:47.825Z,23.50
2018-12-27T04:14:27.424Z,23.02
2018-12-27T04:15:09.675Z,26.10
2018-12-27T04:15:48.458Z,22.10
2018-12-27T04:16:27.682Z,22.77
2018-12-27T04:17:07.508Z,22.22
2018-12-27T04:17:46.945Z,21.82
2018-12-27T04:18:27.246Z,20.80
2018-12-27T04:19:07.070Z,20.12
2018-12-27T04:19:47.024Z,22.42
2018-12-27T04:20:26.598Z,21.10
2018-12-27T04:21:05.752Z,21.87
2018-12-27T04:21:44.665Z,21.50
2018-12-27T04:22:23.384Z,21.25
2018-12-27T04:23:02.227Z,23.27
2018-12-27T04:23:41.203Z,22.17
2018-12-27T04:24:21.490Z,22.50
2018-12-27T04:25:00.305Z,23.00
2018-12-27T04:25:39.595Z,22.40
2018-12-27T04:26:19.062Z,23.12
2018-12-27T04:26:58.767Z,24.20
2018-12-27T04:27:38.310Z,23.15
2018-12-27T04:28:17.144Z,25.15
2018-12-27T04:28:55.883Z,23.32
2018-12-27T04:29:35.484Z,23.67
2018-12-27T04:30:15.097Z,26.60
2018-12-27T04:30:53.896Z,23.57
2018-12-27T04:31:32.671Z,22.80
2018-12-27T04:32:11.473Z,21.37
2018-12-27T04:32:50.664Z,20.57
2018-12-27T04:33:30.001Z,20.75
2018-12-27T04:34:09.571Z,20.72
2018-12-27T04:34:48.879Z,20.12
2018-12-27T04:35:28.319Z,20.20
2018-12-27T04:36:07.000Z,19.87
2018-12-27T04:36:46.178Z,19.42
2018-12-27T04:37:25.326Z,18.65
2018-12-27T04:38:07.193Z,20.25
2018-12-27T04:38:45.984Z,19.67
2018-12-27T04:39:24.803Z,21.33
2018-12-27T04:40:03.548Z,20.50
2018-12-27T04:40:42.605Z,20.33
2018-12-27T04:41:24.490Z,19.32
2018-12-27T04:42:03.366Z,17.95
2018-12-27T04:42:44.994Z,15.80
2018-12-27T04:43:23.825Z,16.50
2018-12-27T04:44:02.625Z,17.75
2018-12-27T04:44:41.692Z,15.93
2018-12-27T04:45:20.860Z,17.50
2018-12-27T04:45:59.733Z,15.20
2018-12-27T04:46:38.978Z,14.47
2018-12-27T04:47:18.095Z,14.78
2018-12-27T04:47:56.820Z,14.47
2018-12-27T04:48:35.560Z,17.60
2018-12-27T04:49:14.277Z,14.87
2018-12-27T04:49:53.054Z,15.37
2018-12-27T04:50:32.351Z,16.77
2018-12-27T04:51:11.010Z,20.23
2018-12-27T04:51:50.274Z,15.03
2018-12-27T04:52:29.544Z,14.78
2018-12-27T04:53:09.897Z,13.85
2018-12-27T04:53:52.858Z,13.38
2018-12-27T04:54:34.606Z,15.40
2018-12-27T04:55:13.015Z,14.53
2018-12-27T04:55:51.953Z,16.17
2018-12-27T04:56:31.207Z,13.45
2018-12-27T04:57:10.676Z,14.10
2018-12-27T04:57:50.014Z,13.22
2018-12-27T04:58:29.217Z,14.28
2018-12-27T04:59:08.597Z,12.47
2018-12-27T04:59:48.127Z,13.35
2018-12-27T05:00:29.706Z,12.58
2018-12-27T05:01:09.163Z,12.35
2018-12-27T05:01:48.063Z,12.28
2018-12-27T05:02:28.685Z,11.03
2018-12-27T05:03:08.090Z,12.60
2018-12-27T05:03:46.875Z,9.50
2018-12-27T05:04:26.030Z,9.60
2018-12-27T05:05:06.106Z,9.53
2018-12-27T05:05:44.877Z,9.85
2018-12-27T05:06:23.847Z,9.80
2018-12-27T05:07:03.022Z,10.10
2018-12-27T05:07:42.336Z,8.93
2018-12-27T05:08:21.812Z,8.40
2018-12-27T05:09:03.445Z,9.10
2018-12-27T05:09:43.248Z,8.63
2018-12-27T05:10:22.739Z,7.58
2018-12-27T05:11:02.307Z,8.70
2018-12-27T05:11:41.484Z,8.38
2018-12-27T05:12:20.802Z,7.08
2018-12-27T05:13:00.288Z,8.08
2018-12-27T05:13:39.724Z,12.07
2018-12-27T05:14:18.400Z,7.72
2018-12-27T05:14:57.803Z,7.00
2018-12-27T05:15:37.871Z,7.28
2018-12-27T05:16:16.884Z,11.00
2018-12-27T05:16:55.764Z,7.17
2018-12-27T05:17:35.154Z,6.92
2018-12-27T05:18:14.046Z,6.75
2018-12-27T05:18:53.217Z,6.78
2018-12-27T05:19:32.253Z,6.58
2018-12-27T05:20:10.946Z,9.15
2018-12-27T05:20:50.274Z,8.33
2018-12-27T05:21:28.944Z,7.55
2018-12-27T05:22:09.291Z,7.28
2018-12-27T05:22:49.338Z,8.10
2018-12-27T05:23:29.278Z,6.22
2018-12-27T05:24:08.115Z,5.80
2018-12-27T05:24:47.315Z,7.45
2018-12-27T05:25:26.314Z,6.75
2018-12-27T05:26:05.332Z,5.83
2018-12-27T05:26:44.094Z,5.15
2018-12-27T05:27:25.253Z,5.17
2018-12-27T05:28:04.731Z,5.60
2018-12-27T05:28:43.923Z,6.12
2018-12-27T05:29:23.575Z,6.10
2018-12-27T05:30:02.862Z,6.62
2018-12-27T05:30:42.430Z,5.97
2018-12-27T05:31:21.904Z,5.60
2018-12-27T05:32:00.526Z,6.10
2018-12-27T05:32:39.288Z,8.13
2018-12-27T05:33:18.133Z,5.50
2018-12-27T05:33:56.877Z,6.53
2018-12-27T05:34:35.866Z,5.57
2018-12-27T05:35:14.911Z,4.75
2018-12-27T05:35:54.531Z,6.17
2018-12-27T05:36:33.919Z,4.95
2018-12-27T05:37:13.283Z,5.40
2018-12-27T05:37:52.470Z,8.90
2018-12-27T05:38:31.897Z,5.12
2018-12-27T05:39:12.688Z,4.75
2018-12-27T05:39:52.285Z,6.87
2018-12-27T05:40:32.109Z,5.05
2018-12-27T05:41:10.963Z,6.67
2018-12-27T05:41:50.956Z,5.30
2018-12-27T05:42:30.123Z,6.58
2018-12-27T05:43:08.887Z,5.30
2018-12-27T05:43:47.679Z,4.35
2018-12-27T05:44:26.857Z,4.45
2018-12-27T05:45:09.605Z,5.70
2018-12-27T05:45:48.315Z,5.55
2018-12-27T05:46:27.871Z,5.45
2018-12-27T05:47:06.883Z,6.80
2018-12-27T05:47:46.388Z,4.65
2018-12-27T05:48:25.647Z,4.62
2018-12-27T05:49:04.725Z,5.53
2018-12-27T05:49:46.906Z,5.08
2018-12-27T05:50:26.236Z,5.50
2018-12-27T05:51:05.372Z,5.33
2018-12-27T05:51:44.138Z,6.92
2018-12-27T05:52:22.791Z,5.40
2018-12-27T05:53:01.644Z,4.95
2018-12-27T05:53:40.387Z,4.72
2018-12-27T05:54:19.321Z,6.50
2018-12-27T05:54:58.085Z,4.58
2018-12-27T05:55:37.513Z,7.30
2018-12-27T05:56:18.975Z,4.55
2018-12-27T05:56:57.982Z,4.55
2018-12-27T05:57:37.297Z,4.53
2018-12-27T05:58:20.249Z,9.30
2018-12-27T05:58:58.944Z,5.92
2018-12-27T05:59:37.684Z,4.78
2018-12-27T06:00:17.412Z,5.45
2018-12-27T06:00:56.706Z,6.65
2018-12-27T06:01:36.104Z,7.15
2018-12-27T06:02:15.215Z,5.17
2018-12-27T06:03:12.778Z,6.28
2018-12-27T06:03:51.952Z,5.70
2018-12-27T06:04:33.947Z,5.85
2018-12-27T06:05:11.416Z,5.75
2018-12-27T06:05:50.260Z,6.12
2018-12-27T06:06:29.286Z,5.08
2018-12-27T06:07:08.391Z,5.13
2018-12-27T06:07:50.056Z,4.87
2018-12-27T06:08:28.816Z,6.95
2018-12-27T06:09:08.240Z,5.75
2018-12-27T06:09:47.519Z,8.93
2018-12-27T06:10:26.392Z,7.87
2018-12-27T06:11:05.686Z,6.08
2018-12-27T06:11:45.069Z,6.22
2018-12-27T06:12:23.827Z,7.67
2018-12-27T06:13:03.120Z,8.35
2018-12-27T06:13:41.894Z,8.40
2018-12-27T06:14:21.536Z,9.25
2018-12-27T06:15:00.372Z,8.65
2018-12-27T06:15:39.419Z,8.60
2018-12-27T06:16:18.712Z,8.10
2018-12-27T06:16:57.584Z,14.63
2018-12-27T06:17:36.853Z,12.25
2018-12-27T06:18:16.663Z,15.93
2018-12-27T06:18:57.884Z,12.73
2018-12-27T06:19:37.253Z,14.87
2018-12-27T06:20:16.395Z,16.23
2018-12-27T06:20:55.578Z,15.35
2018-12-27T06:21:37.787Z,15.15
2018-12-27T06:22:16.616Z,16.67
2018-12-27T06:22:55.468Z,16.10
2018-12-27T06:23:34.996Z,16.48
2018-12-27T06:24:14.397Z,18.57
2018-12-27T06:24:53.203Z,17.10
2018-12-27T06:25:32.573Z,18.15
2018-12-27T06:26:12.837Z,18.07
2018-12-27T06:26:52.127Z,17.15
2018-12-27T06:27:31.557Z,22.13
2018-12-27T06:28:11.065Z,20.27
2018-12-27T06:28:52.113Z,20.25
2018-12-27T06:29:32.956Z,21.12
2018-12-27T06:30:12.206Z,21.05
2018-12-27T06:30:51.384Z,24.55
2018-12-27T06:31:30.698Z,23.07
2018-12-27T06:32:10.578Z,21.62
2018-12-27T06:32:49.619Z,22.83
2018-12-27T06:33:29.017Z,21.30
2018-12-27T06:34:08.510Z,19.05
2018-12-27T06:34:48.007Z,19.95
2018-12-27T06:35:27.981Z,22.82
2018-12-27T06:36:07.153Z,20.65
2018-12-27T06:36:46.744Z,25.32
2018-12-27T06:37:25.850Z,20.32
2018-12-27T06:38:05.335Z,18.48
2018-12-27T06:38:44.121Z,19.33
2018-12-27T06:39:23.512Z,19.77
2018-12-27T06:40:02.232Z,19.02
2018-12-27T06:40:41.005Z,17.40
2018-12-27T06:41:20.331Z,16.32
2018-12-27T06:41:59.702Z,16.65
2018-12-27T06:42:39.737Z,17.20
2018-12-27T06:43:19.664Z,22.93
2018-12-27T06:44:02.444Z,18.52
2018-12-27T06:44:44.171Z,16.30
2018-12-27T06:45:23.594Z,15.95
2018-12-27T06:46:05.344Z,16.93
2018-12-27T06:46:44.851Z,17.40
2018-12-27T06:47:24.298Z,15.72
2018-12-27T06:48:03.657Z,15.10
2018-12-27T06:48:42.812Z,15.97
2018-12-27T06:49:22.245Z,15.05
2018-12-27T06:50:01.227Z,16.27
2018-12-27T06:50:40.333Z,15.57
2018-12-27T06:51:19.686Z,17.92
2018-12-27T06:51:58.903Z,13.80
2018-12-27T06:52:38.418Z,13.98
2018-12-27T06:53:17.798Z,14.20
2018-12-27T06:53:56.563Z,13.00
2018-12-27T06:54:35.273Z,12.63
2018-12-27T06:55:14.005Z,12.13
2018-12-27T06:55:56.293Z,12.00
2018-12-27T06:56:34.965Z,15.40
2018-12-27T06:57:13.762Z,12.23
2018-12-27T06:57:52.802Z,11.80
2018-12-27T06:58:37.761Z,13.55
2018-12-27T06:59:12.774Z,14.47
2018-12-27T06:59:52.059Z,12.37
2018-12-27T07:00:30.960Z,11.83
2018-12-27T07:01:09.716Z,14.45
2018-12-27T07:01:48.355Z,14.50
2018-12-27T07:02:28.365Z,11.55
2018-12-27T07:03:10.648Z,12.45
2018-12-27T07:03:50.110Z,12.03
2018-12-27T07:04:29.271Z,12.03
2018-12-27T07:05:08.837Z,11.88
2018-12-27T07:05:51.232Z,11.55
2018-12-27T07:06:30.551Z,11.90
2018-12-27T07:07:09.885Z,15.45
2018-12-27T07:07:50.486Z,11.88
2018-12-27T07:08:29.578Z,11.53
2018-12-27T07:09:10.424Z,10.93
2018-12-27T07:09:49.240Z,13.35
2018-12-27T07:10:28.521Z,11.05
2018-12-27T07:11:07.193Z,12.00
2018-12-27T07:11:45.988Z,9.73
2018-12-27T07:12:24.751Z,10.43
2018-12-27T07:13:04.008Z,12.23
2018-12-27T07:13:45.810Z,11.55
2018-12-27T07:14:24.735Z,11.63
2018-12-27T07:15:03.465Z,10.68
2018-12-27T07:15:46.205Z,13.38
2018-12-27T07:16:24.981Z,10.23
2018-12-27T07:17:03.805Z,10.35
2018-12-27T07:17:42.854Z,11.03
2018-12-27T07:18:22.072Z,10.48
2018-12-27T07:19:01.292Z,13.72
2018-12-27T07:19:40.610Z,10.53
2018-12-27T07:20:20.051Z,10.78
2018-12-27T07:20:58.718Z,11.03
2018-12-27T07:21:37.724Z,10.95
2018-12-27T07:22:17.673Z,10.50
2018-12-27T07:22:57.078Z,11.55
2018-12-27T07:23:35.907Z,11.27
2018-12-27T07:24:15.239Z,10.95
2018-12-27T07:24:53.900Z,11.28
2018-12-27T07:25:33.135Z,10.73
2018-12-27T07:26:12.304Z,9.70
2018-12-27T07:26:51.504Z,10.45
2018-12-27T07:27:30.233Z,9.40
2018-12-27T07:28:11.819Z,10.75
2018-12-27T07:28:51.255Z,14.25
2018-12-27T07:29:30.587Z,9.93
2018-12-27T07:30:09.541Z,10.98
2018-12-27T07:30:51.652Z,10.90
2018-12-27T07:31:30.421Z,12.23
2018-12-27T07:32:09.199Z,11.35
2018-12-27T07:32:47.886Z,13.38
2018-12-27T07:33:26.718Z,11.00
2018-12-27T07:34:05.772Z,11.30
2018-12-27T07:34:45.046Z,10.58
2018-12-27T07:35:24.152Z,11.83
2018-12-27T07:36:21.384Z,10.38
2018-12-27T07:37:00.926Z,14.55
2018-12-27T07:37:39.965Z,10.18
2018-12-27T07:38:18.670Z,10.85
2018-12-27T07:38:57.483Z,10.80
2018-12-27T07:39:36.790Z,11.05
2018-12-27T07:40:15.735Z,11.23
2018-12-27T07:40:55.433Z,10.75
2018-12-27T07:41:35.138Z,11.70
2018-12-27T07:42:14.549Z,11.35
2018-12-27T07:42:53.885Z,11.73
2018-12-27T07:43:33.463Z,12.53
2018-12-27T07:44:12.763Z,11.68
2018-12-27T07:44:52.379Z,12.40
2018-12-27T07:45:31.782Z,9.80
2018-12-27T07:46:11.257Z,9.83
2018-12-27T07:46:50.155Z,10.50
2018-12-27T07:47:29.599Z,9.50
2018-12-27T07:48:08.511Z,8.93
2018-12-27T07:48:47.836Z,11.15
2018-12-27T07:49:26.782Z,7.05
2018-12-27T07:50:06.219Z,7.53
2018-12-27T07:50:45.770Z,9.60
2018-12-27T07:51:25.131Z,9.85
2018-12-27T07:52:04.286Z,8.00
2018-12-27T07:52:44.002Z,6.60
2018-12-27T07:53:23.486Z,7.08
2018-12-27T07:54:03.101Z,5.55
2018-12-27T07:54:42.153Z,5.90
2018-12-27T07:55:21.530Z,5.97
2018-12-27T07:56:00.353Z,7.17
2018-12-27T07:56:39.158Z,4.53
2018-12-27T07:57:18.349Z,4.40
2018-12-27T07:57:57.464Z,6.58
2018-12-27T07:58:36.640Z,5.20
2018-12-27T07:59:16.274Z,7.87
2018-12-27T07:59:55.633Z,5.15
2018-12-27T08:00:34.551Z,4.83
2018-12-27T08:01:13.566Z,4.78
2018-12-27T08:01:53.131Z,4.55
2018-12-27T08:02:32.026Z,5.40
2018-12-27T08:03:11.045Z,5.10
2018-12-27T08:03:50.264Z,5.20
2018-12-27T08:04:28.896Z,4.33
2018-12-27T08:05:08.590Z,4.40
2018-12-27T08:05:47.595Z,5.20
2018-12-27T08:06:29.029Z,5.33
2018-12-27T08:07:07.913Z,5.53
2018-12-27T08:07:47.565Z,4.67
2018-12-27T08:08:27.009Z,5.72
2018-12-27T08:09:07.641Z,6.20
2018-12-27T08:09:46.806Z,5.10
2018-12-27T08:10:25.789Z,5.40
2018-12-27T08:11:05.536Z,9.23
2018-12-27T08:11:45.201Z,4.20
2018-12-27T08:12:24.615Z,4.03
2018-12-27T08:13:03.876Z,4.95
2018-12-27T08:13:43.163Z,3.90
2018-12-27T08:14:22.608Z,4.17
2018-12-27T08:15:01.336Z,6.97
2018-12-27T08:15:40.022Z,6.20
2018-12-27T08:16:19.105Z,4.15
2018-12-27T08:17:01.139Z,3.90
2018-12-27T08:17:40.796Z,7.95
2018-12-27T08:18:20.384Z,3.98
2018-12-27T08:18:59.505Z,4.83
2018-12-27T08:19:38.245Z,3.83
2018-12-27T08:20:17.689Z,5.00
2018-12-27T08:20:56.940Z,3.87
2018-12-27T08:21:35.979Z,4.83
2018-12-27T08:22:15.359Z,4.90
2018-12-27T08:22:54.487Z,4.78
2018-12-27T08:23:33.183Z,4.37
2018-12-27T08:24:11.927Z,6.20
2018-12-27T08:24:50.556Z,4.28
2018-12-27T08:25:29.343Z,4.20
2018-12-27T08:26:08.496Z,5.03
2018-12-27T08:26:47.305Z,5.00
2018-12-27T08:27:26.555Z,4.55
2018-12-27T08:28:05.797Z,5.17
2018-12-27T08:28:46.013Z,4.57
2018-12-27T08:29:25.162Z,6.53
2018-12-27T08:30:03.753Z,4.30
2018-12-27T08:30:42.816Z,5.90
2018-12-27T08:31:21.398Z,5.20
2018-12-27T08:32:00.026Z,7.90
2018-12-27T08:32:39.410Z,4.00
2018-12-27T08:33:19.050Z,4.00
2018-12-27T08:34:00.116Z,5.70
2018-12-27T08:34:40.054Z,4.50